createdAt,value
2022-09-01T00:00:30.212Z,100.46
2022-09-01T00:15:36.105Z,101.21
2022-09-01T00:30:41.996Z,100.18
2022-09-01T00:45:47.751Z,101.54
2022-09-01T01:00:55.116Z,104.02
2022-09-01T01:16:01.555Z,106.01
2022-09-01T01:31:12.823Z,106.49
2022-09-01T01:46:19.748Z,107.34
2022-09-01T02:01:29.436Z,107.26
2022-09-01T02:16:35.788Z,107.45
2022-09-01T02:31:42.103Z,107.04
2022-09-01T02:46:49.441Z,107.37
2022-09-01T03:01:56.599Z,107.14
2022-09-01T03:17:02.200Z,107.05
2022-09-01T03:32:08.506Z,106.48
2022-09-01T03:47:15.528Z,106.42
2022-09-01T04:02:22.196Z,106.66
2022-09-01T04:17:48.213Z,106.72
2022-09-01T04:32:56.425Z,107.16
2022-09-01T04:48:03.234Z,105.96
2022-09-01T05:03:10.524Z,106.25
2022-09-01T05:18:23.593Z,105.89
2022-09-01T05:33:29.333Z,106.43
2022-09-01T05:48:40.358Z,106.22
2022-09-01T06:03:46.767Z,105.94
2022-09-01T06:18:54.487Z,104.09
2022-09-01T06:34:02.145Z,100.22
2022-09-01T06:49:11.799Z,95.49
2022-09-01T07:04:21.796Z,86.67
2022-09-01T07:19:48.261Z,82.04
2022-09-01T07:34:54.539Z,79.94
2022-09-01T07:50:24.711Z,77.26
2022-09-01T08:05:29.207Z,76.85
2022-09-01T08:20:38.106Z,73.77
2022-09-01T08:35:47.509Z,73.25
2022-09-01T08:50:57.820Z,70.97
2022-09-01T09:06:16.743Z,69.42
2022-09-01T09:21:26.945Z,69.06
2022-09-01T09:36:38.359Z,66.72
2022-09-01T09:51:49.015Z,65.09
2022-09-01T10:06:55.919Z,66.11
2022-09-01T10:22:02.016Z,64.78
2022-09-01T10:37:11.718Z,64.11
2022-09-01T10:53:16.993Z,62.99
2022-09-01T11:08:42.521Z,62.15
2022-09-01T11:24:34.636Z,62.82
2022-09-01T11:39:52.399Z,61.53
2022-09-01T11:54:58.974Z,62.88
2022-09-01T12:10:05.321Z,60.16
2022-09-01T12:25:23.069Z,61.28
2022-09-01T12:40:36.546Z,59.81
2022-09-01T12:55:49.732Z,57.90
2022-09-01T13:10:57.467Z,57.16
2022-09-01T13:26:04.037Z,56.81
2022-09-01T13:41:11.659Z,57.74
2022-09-01T13:56:17.573Z,58.35
2022-09-01T14:11:23.186Z,57.83
2022-09-01T14:26:28.942Z,58.93
2022-09-01T14:41:35.041Z,59.64
2022-09-01T14:56:42.045Z,60.32
2022-09-01T15:11:48.208Z,60.72
2022-09-01T15:26:53.785Z,61.60
2022-09-01T15:41:59.463Z,62.37
2022-09-01T15:57:05.636Z,63.02
2022-09-01T16:12:11.842Z,62.68
2022-09-01T16:27:22.167Z,63.45
2022-09-01T16:42:33.167Z,64.81
2022-09-01T16:57:45.502Z,63.75
2022-09-01T17:12:53.562Z,65.26
2022-09-01T17:28:02.950Z,66.33
2022-09-01T17:43:18.383Z,67.36
2022-09-01T17:58:46.854Z,69.11
2022-09-01T18:13:57.727Z,69.77
2022-09-01T18:29:06.929Z,70.81
2022-09-01T18:44:26.823Z,72.29
2022-09-01T18:59:58.228Z,74.08
2022-09-01T19:15:11.696Z,74.15
2022-09-01T19:30:18.293Z,74.98
2022-09-01T19:45:29.473Z,75.99
2022-09-01T20:00:51.203Z,75.92
2022-09-01T20:16:06.168Z,76.34
2022-09-01T20:31:18.569Z,78.20
2022-09-01T20:46:26.350Z,80.69
2022-09-01T21:01:38.767Z,84.68
2022-09-01T21:16:54.696Z,82.91
2022-09-01T21:32:01.320Z,82.91
2022-09-01T21:47:07.840Z,83.74
2022-09-01T22:02:14.132Z,83.83
2022-09-01T22:17:20.612Z,85.02
2022-09-01T22:32:28.792Z,85.19
2022-09-01T22:47:38.621Z,85.32
2022-09-01T23:02:45.166Z,85.53
2022-09-01T23:17:50.806Z,86.04
2022-09-01T23:32:56.814Z,87.20
2022-09-01T23:48:04.533Z,87.28
